Latest Weather Observations for Red Rocks Point

IDW60801

Issued at 8:33 am WST Friday 31 March 2017 (issued every 30 minutes, with the page automatically refreshed every 10 minutes)

About weather observations | Map of weather stations | Latest weather observations for WA | Other Formats
Station Details ID: 011053 Name: RED ROCKS POINT Lat: -32.20 Lon: 127.53 Height: 3.1 m
Data from the previous 72 hours. | See also: Recent months at Red Rocks Point
Date/Time
WST
Temp
°C
App
Temp
°C
Dew
Point
°C
Rel
Hum
%
Delta-T
°C
Wind Press
QNH
hPa
Press
MSL
hPa
Rain since
9am
mm
Dir  Spd
km/h
Gust
km/h
Spd
kts
Gust
kts
31/08:30am 19.0 16.8 9.2 53 5.1 N 11 15 6 8 1026.2 1026.2 0.0
31/08:00am 17.6 14.6 9.2 58 4.3 N 15 20 8 11 1026.2 1026.2 0.0
31/07:30am 15.7 13.0 9.1 65 3.4 NNW 13 17 7 9 1026.0 1026.0 0.0
31/07:00am 13.0 9.8 8.5 74 2.2 NNW 15 19 8 10 1025.9 1025.9 0.0
31/06:30am 11.2 7.5 8.1 81 1.5 NNW 17 19 9 10 1025.6 1025.6 0.0
31/06:00am 9.7 5.5 7.3 85 1.1 NNW 19 20 10 11 1025.6 1025.6 0.0
31/05:30am 9.3 5.4 6.9 85 1.1 NNW 17 20 9 11 1025.4 1025.4 0.0
31/05:00am 8.9 4.6 6.9 87 0.9 NNW 19 20 10 11 1025.0 1025.0 0.0
31/04:30am 9.0 4.6 6.6 85 1.1 NNW 19 20 10 11 1024.7 1024.7 0.0
31/04:00am 9.4 5.1 7.0 85 1.1 NNW 19 20 10 11 1024.6 1024.6 0.0
31/03:30am 9.5 5.2 6.8 83 1.3 NNW 19 20 10 11 1024.4 1024.4 0.0
31/03:00am 10.1 6.2 7.3 83 1.3 N 17 20 9 11 1024.2 1024.2 0.0
31/02:30am 10.2 6.3 7.1 81 1.5 N 17 19 9 10 1024.2 1024.2 0.0
31/02:00am 10.0 6.4 6.9 81 1.5 NNW 15 17 8 9 1024.4 1024.4 0.0
31/01:30am 10.6 7.1 7.1 79 1.7 N 15 17 8 9 1024.5 1024.5 0.0
31/01:00am 10.7 8.3 6.8 77 1.8 NNW 9 13 5 7 1024.5 1024.5 0.0
31/12:30am 11.9 9.5 7.0 72 2.3 N 9 11 5 6 1024.7 1024.7 0.0
31/12:00am 13.4 11.1 7.6 68 2.8 N 9 11 5 6 1024.8 1024.8 0.0
 
Date/Time
WST
Temp
°C
App
Temp
°C
Dew
Point
°C
Rel
Hum
%
Delta-T
°C
Wind Press
QNH
hPa
Press
MSL
hPa
Rain since
9am
mm
Dir  Spd
km/h
Gust
km/h
Spd
kts
Gust
kts
30/11:30pm 16.1 12.2 8.8 62 3.7 ENE 19 32 10 17 1024.7 1024.7 0.0
30/11:00pm 17.5 13.3 11.1 66 3.4 E 24 28 13 15 1024.8 1024.8 0.0
30/10:30pm 17.4 12.9 10.1 62 3.9 E 24 30 13 16 1025.3 1025.3 0.0
30/10:00pm 17.5 13.0 10.1 62 3.9 E 24 28 13 15 1025.6 1025.6 0.0
30/09:30pm 17.6 12.9 10.5 63 3.8 E 26 30 14 16 1025.8 1025.8 0.0
30/09:00pm 17.7 13.4 10.8 64 3.7 ESE 24 30 13 16 1026.1 1026.1 0.0
30/08:30pm 17.7 13.4 10.8 64 3.7 ESE 24 32 13 17 1026.1 1026.1 0.0
30/08:00pm 17.6 12.9 10.7 64 3.7 ESE 26 33 14 18 1026.0 1026.0 0.0
30/07:30pm 17.7 13.0 10.6 63 3.8 ESE 26 32 14 17 1025.9 1025.9 0.0
30/07:00pm 17.6 12.7 11.2 66 3.4 ESE 28 32 15 17 1025.7 1025.7 0.0
30/06:30pm 17.4 13.1 10.8 65 3.5 ESE 24 30 13 16 1025.7 1025.7 0.0
30/06:00pm 17.5 13.5 10.6 64 3.7 ESE 22 30 12 16 1025.7 1025.7 0.0
30/05:30pm 17.5 13.0 10.1 62 3.9 ESE 24 30 13 16 1025.6 1025.6 0.0
30/05:00pm 17.8 13.5 9.4 58 4.4 ESE 22 26 12 14 1025.5 1025.5 0.0
30/04:30pm 18.3 14.1 9.6 57 4.6 ESE 22 26 12 14 1025.3 1025.3 0.0
30/04:00pm 18.7 14.8 9.5 55 4.8 ESE 20 28 11 15 1025.2 1025.2 0.0
30/03:30pm 18.9 14.5 9.1 53 5.1 ESE 22 30 12 16 1025.1 1025.1 0.0
30/03:00pm 19.2 15.2 9.1 52 5.3 SE 20 26 11 14 1025.2 1025.2 0.0
30/02:30pm 19.3 15.3 8.9 51 5.4 SE 20 24 11 13 1025.3 1025.3 0.0
30/02:00pm 19.5 15.5 9.1 51 5.4 SE 20 26 11 14 1025.6 1025.6 0.0
30/01:30pm 19.9 16.2 10.3 54 5.2 SSE 20 26 11 14 1025.9 1025.9 0.0
30/01:00pm 19.8 15.8 9.1 50 5.6 SE 20 24 11 13 1026.1 1026.1 0.0
30/12:30pm 20.1 16.6 8.8 48 5.9 SE 17 24 9 13 1026.6 1026.6 0.0
30/12:00pm 19.9 16.0 7.3 44 6.4 SE 17 20 9 11 1027.2 1027.2 0.0
30/11:30am 20.6 17.6 9.2 48 6.0 SE 15 20 8 11 1027.4 1027.4 0.0
30/11:00am 19.3 16.4 8.0 48 5.8 SE 13 20 7 11 1027.8 1027.8 0.0
30/10:30am 18.9 15.8 7.4 47 5.8 SE 13 19 7 10 1028.1 1028.1 0.0
30/10:00am 19.0 15.8 8.4 50 5.4 ESE 15 20 8 11 1028.2 1028.2 0.0
30/09:30am 18.5 14.6 8.7 53 5.1 ESE 19 26 10 14 1028.5 1028.5 0.0
30/09:00am 18.1 15.4 8.9 55 4.7 ESE 13 20 7 11 1028.5 1028.5 0.0
30/08:30am 18.0 14.2 9.1 56 4.6 SE 19 26 10 14 1028.4 1028.4 0.0
30/08:00am 18.1 14.3 8.9 55 4.7 ESE 19 26 10 14 1028.3 1028.3 0.0
30/07:30am 17.8 13.0 7.5 51 5.2 SE 22 30 12 16 1028.1 1028.1 0.0
30/07:00am 17.8 13.2 8.1 53 4.9 SE 22 30 12 16 1027.8 1027.8 0.0
30/06:30am 17.2 12.4 7.5 53 4.9 SE 22 30 12 16 1027.6 1027.6 0.0
30/06:00am 16.8 11.2 7.2 53 4.7 SSE 26 32 14 17 1027.5 1027.5 0.0
30/05:30am 16.9 12.0 8.6 58 4.3 SE 24 32 13 17 1027.2 1027.2 0.0
30/05:00am 16.8 10.8 6.9 52 4.9 SE 28 37 15 20 1027.0 1027.0 0.0
30/04:30am 17.1 11.8 8.3 56 4.5 SE 26 33 14 18 1026.8 1026.8 0.0
30/04:00am 17.0 11.8 8.7 58 4.2 SSE 26 33 14 18 1026.6 1026.6 0.0
30/03:30am 17.0 12.3 7.9 55 4.6 SSE 22 28 12 15 1026.5 1026.5 0.0
30/03:00am 16.8 12.0 7.4 54 4.7 SSE 22 28 12 15 1026.4 1026.4 0.0
30/02:30am 17.0 11.6 8.2 56 4.5 SSE 26 35 14 19 1026.2 1026.2 0.0
30/02:00am 17.1 11.6 9.0 59 4.2 SSE 28 39 15 21 1026.3 1026.3 0.0
30/01:30am 17.0 12.8 9.7 62 3.8 SSE 22 28 12 15 1026.4 1026.4 0.0
30/01:00am 17.1 12.2 8.3 56 4.5 SSE 24 32 13 17 1026.3 1026.3 0.0
30/12:30am 16.9 12.3 8.3 57 4.4 SSE 22 26 12 14 1026.3 1026.3 0.0
30/12:00am 16.9 12.0 8.6 58 4.2 SSE 24 30 13 16 1026.5 1026.5 0.0
 
Date/Time
WST
Temp
°C
App
Temp
°C
Dew
Point
°C
Rel
Hum
%
Delta-T
°C
Wind Press
QNH
hPa
Press
MSL
hPa
Rain since
9am
mm
Dir  Spd
km/h
Gust
km/h
Spd
kts
Gust
kts
29/11:30pm 17.0 11.5 7.6 54 4.7 S 26 35 14 19 1026.6 1026.6 0.0
29/11:00pm 16.5 9.8 7.2 54 4.6 S 32 41 17 22 1026.7 1026.7 0.0
29/10:30pm 17.3 11.1 9.5 60 4.1 S 32 39 17 21 1026.8 1026.8 0.0
29/10:00pm 17.0 12.0 8.2 56 4.4 S 24 35 13 19 1026.8 1026.8 0.0
29/09:30pm 16.9 10.2 7.5 54 4.7 S 32 39 17 21 1026.9 1026.9 0.0
29/09:00pm 17.2 10.2 8.6 57 4.4 SSE 35 43 19 23 1026.8 1026.8 0.0
29/08:30pm 17.1 11.4 8.5 57 4.4 S 28 35 15 19 1026.8 1026.8 0.0
29/08:00pm 17.0 11.2 7.9 55 4.6 S 28 35 15 19 1026.6 1026.6 0.0
29/07:30pm 16.7 9.8 7.1 53 4.8 S 33 41 18 22 1026.5 1026.5 0.0
29/07:00pm 16.9 10.4 8.1 56 4.4 S 32 39 17 21 1026.2 1026.2 0.0
29/06:30pm 16.9 11.1 8.1 56 4.5 SSW 28 41 15 22 1025.7 1025.7 0.0
29/06:00pm 16.7 10.1 7.9 56 4.4 S 32 41 17 22 1025.4 1025.4 0.0
29/05:30pm 16.9 10.3 7.8 55 4.6 SSW 32 41 17 22 1025.0 1025.0 0.0
29/05:00pm 17.1 10.8 8.8 58 4.3 S 32 41 17 22 1024.8 1024.8 0.0
29/04:30pm 17.6 10.8 9.2 58 4.4 S 35 43 19 23 1024.4 1024.4 0.0
29/04:00pm 17.7 10.3 6.9 49 5.4 SSW 35 46 19 25 1024.3 1024.3 0.0
29/03:30pm 18.1 12.1 8.7 54 4.9 SSW 30 44 16 24 1024.0 1024.0 0.0
29/03:00pm 19.0 12.2 7.1 46 6.0 SSW 32 44 17 24 1023.8 1023.8 0.0
29/02:30pm 19.5 12.6 6.6 43 6.5 SSW 32 44 17 24 1023.6 1023.6 0.0
29/02:00pm 20.3 13.4 6.6 41 6.9 SSW 32 48 17 26 1023.3 1023.3 0.0
29/01:30pm 20.5 13.7 7.5 43 6.7 SSW 33 44 18 24 1023.1 1023.1 0.0
29/01:00pm 19.9 12.6 8.6 48 5.9 SSW 37 46 20 25 1023.0 1023.0 0.0
29/12:30pm 20.9 14.6 8.9 46 6.3 SSW 32 44 17 24 1022.9 1022.9 0.0
29/12:00pm 21.2 14.7 8.1 43 6.8 SSW 32 43 17 23 1023.0 1023.0 0.0
29/11:30am 21.0 14.6 8.6 45 6.5 SSW 32 44 17 24 1022.9 1022.9 0.0
29/11:00am 20.9 14.7 10.1 50 5.8 SSW 33 46 18 25 1022.8 1022.8 0.0
29/10:30am 20.0 13.9 9.6 51 5.5 SSW 32 44 17 24 1022.5 1022.5 0.0
29/10:09am 21.5 15.8 9.7 47 6.3 SSW 30 48 16 26 1022.4 1022.4 0.0
29/10:00am 20.8 14.1 8.1 44 6.6 SSW 33 48 18 26 1022.3 1022.3 0.0
29/09:30am 20.6 13.3 7.2 42 6.8 SSW 35 54 19 29 1022.0 1022.0 0.0
29/09:20am 20.4 13.6 7.7 44 6.5 SW 33 52 18 28 1021.9 1021.9 0.0
29/09:00am 20.2 13.1 9.7 51 5.6 SW 37 54 20 29 1021.5 1021.5 0.0
29/08:40am 20.1 13.7 10.8 55 5.1 SSW 35 54 19 29 1021.3 1021.3 0.0
29/08:30am 19.5 12.7 10.8 57 4.7 SSW 37 52 20 28 1021.3 1021.3 0.0
29/08:00am 20.4 14.0 10.8 54 5.2 SW 35 50 19 27 1020.8 1020.8 0.0
29/07:30am 19.0 12.9 10.3 57 4.7 SSW 33 46 18 25 1020.4 1020.4 0.0
29/07:00am 18.7 12.9 12.7 68 3.3 SSW 35 50 19 27 1020.0 1020.0 0.0
29/06:30am 18.9 13.9 13.3 70 3.2 SW 32 50 17 27 1019.4 1019.4 0.0
29/06:29am 18.8 13.7 13.0 69 3.3 SW 32 50 17 27 1019.3 1019.3 0.0
29/06:00am 18.8 14.2 13.4 71 3.1 SW 30 39 16 21 1018.7 1018.7 0.0
29/05:30am 18.6 14.9 14.9 79 2.2 SSW 28 37 15 20 1018.3 1018.3 0.0
29/05:14am 18.6 14.2 14.1 75 2.6 SSW 30 48 16 26 1018.2 1018.2 0.0
29/05:00am 19.0 15.6 14.7 76 2.5 SSW 26 43 14 23 1018.0 1018.0 0.0
29/04:30am 18.8 14.8 15.1 79 2.2 SW 30 48 16 26 1017.5 1017.5 0.0
29/04:22am 19.6 16.0 15.3 76 2.5 SW 28 48 15 26 1017.3 1017.3 0.0
29/04:00am 19.2 15.8 13.8 71 3.1 SW 24 35 13 19 1016.8 1016.8 0.0
29/03:30am 18.7 14.9 12.5 67 3.5 SW 24 32 13 17 1016.4 1016.4 0.0
29/03:00am 19.2 15.9 14.0 72 3.0 SW 24 33 13 18 1016.0 1016.0 0.0
29/02:30am 19.3 16.5 14.3 73 2.9 SW 22 32 12 17 1015.8 1015.8 0.0
29/02:00am 18.8 17.4 14.5 76 2.5 SW 15 22 8 12 1015.8 1015.8 0.0
29/01:30am 19.1 17.3 14.4 74 2.7 SW 17 26 9 14 1015.9 1015.9 0.0
29/01:00am 19.4 17.2 14.9 75 2.6 SW 20 28 11 15 1016.0 1016.0 0.0
29/12:30am 19.5 17.4 15.2 76 2.5 SW 20 30 11 16 1015.8 1015.8 0.0
29/12:00am 19.4 17.1 14.6 74 2.8 SW 20 30 11 16 1015.6 1015.6 0.0
 
Date/Time
WST
Temp
°C
App
Temp
°C
Dew
Point
°C
Rel
Hum
%
Delta-T
°C
Wind Press
QNH
hPa
Press
MSL
hPa
Rain since
9am
mm
Dir  Spd
km/h
Gust
km/h
Spd
kts
Gust
kts
28/11:30pm 18.6 17.2 15.5 82 1.8 SSW 17 26 9 14 1015.4 1015.4 0.0
28/11:00pm 15.0 14.2 12.9 87 1.2 WSW 9 13 5 7 1015.3 1015.3 0.0
28/10:30pm 14.4 13.9 11.9 85 1.3 WSW 6 13 3 7 1015.0 1015.0 0.0
28/10:00pm 14.5 14.9 11.3 81 1.7 CALM 0 0 0 0 1015.0 1015.0 0.0
28/09:30pm 16.0 14.8 12.7 81 1.8 N 11 13 6 7 1014.7 1014.7 0.0
28/09:00pm 16.1 14.8 12.5 79 2.0 N 11 13 6 7 1014.6 1014.6 0.0
28/08:30pm 17.0 15.5 13.1 78 2.2 N 13 15 7 8 1014.4 1014.4 0.0
28/08:00pm 17.0 15.8 12.9 77 2.3 NNE 11 13 6 7 1014.2 1014.2 0.0
28/07:30pm 17.8 16.9 12.7 72 2.8 NNE 9 11 5 6 1014.1 1014.1 0.0
28/07:00pm 20.5 19.5 14.6 69 3.4 ENE 13 15 7 8 1013.9 1013.9 0.0
28/06:30pm 20.6 20.0 14.7 69 3.5 E 11 13 6 7 1013.6 1013.6 0.0
28/06:00pm 20.5 19.4 14.2 67 3.7 ESE 13 15 7 8 1013.2 1013.2 0.0
28/05:30pm 20.8 20.2 14.5 67 3.7 SE 11 13 6 7 1013.2 1013.2 0.0
28/05:00pm 21.4 20.7 14.3 64 4.1 SE 11 13 6 7 1013.2 1013.2 0.0
28/04:30pm 22.0 21.2 14.1 61 4.6 SE 11 13 6 7 1013.0 1013.0 0.0
28/04:00pm 22.6 21.4 13.9 58 5.1 SSE 13 15 7 8 1012.9 1012.9 0.0
28/03:30pm 23.0 21.3 13.5 55 5.5 S 15 17 8 9 1013.1 1013.1 0.0
28/03:00pm 23.4 22.0 14.4 57 5.3 SSE 15 17 8 9 1013.2 1013.2 0.0
28/02:30pm 23.3 21.9 14.6 58 5.1 SSE 15 17 8 9 1013.5 1013.5 0.0
28/02:00pm 23.6 22.0 14.0 55 5.6 S 15 17 8 9 1013.8 1013.8 0.0
28/01:30pm 23.9 22.5 14.6 56 5.5 SSE 15 20 8 11 1014.0 1014.0 0.0
28/01:00pm 23.8 22.3 15.3 59 5.1 SSE 17 20 9 11 1014.5 1014.5 0.0
28/12:30pm 23.8 22.1 14.8 57 5.4 SSE 17 19 9 10 1014.7 1014.7 0.0
28/12:00pm 24.8 22.6 14.3 52 6.2 S 19 20 10 11 1015.2 1015.2 0.0
28/11:30am 24.3 21.8 13.5 51 6.3 S 19 20 10 11 1015.7 1015.7 0.0
28/11:00am 24.8 22.5 14.0 51 6.4 S 19 35 10 19 1016.3 1016.3 0.0
28/10:30am 24.6 22.6 10.1 40 8.0 WNW 11 20 6 11 1016.6 1016.6 0.0
28/10:00am 23.9 22.0 10.6 43 7.4 NW 11 22 6 12 1017.0 1017.0 0.0
28/09:30am 23.0 20.8 12.0 50 6.2 NNW 15 24 8 13 1017.6 1017.6 0.0
28/09:00am 21.6 19.2 12.5 56 5.1 NNW 17 26 9 14 1017.8 1017.8 0.0

Other Formats:

Comma delimited format used in spreadsheet applications
http://www.bom.gov.au/fwo/IDW60801/IDW60801.94644.axf

JavaScript Object Notation format (JSON) in row-major order
http://www.bom.gov.au/fwo/IDW60801/IDW60801.94644.json